METAR Data
IDs: Format: Raw Decoded Include TAF

Data at: 0817 UTC 18 Nov 2018

PAAQ 180753Z AUTO 35014KT 10SM BKN095 03/M03 A2956 RMK AO2 SLP012 T00331033 TSNO
PAAQ 180653Z AUTO 35015KT 10SM OVC090 04/M03 A2956 RMK AO2 RAE08 SLP012 P0000 T00391028 TSNO
PAAQ 180553Z AUTO 35011KT 10SM -RA BKN060 OVC080 03/M02 A2957 RMK AO2 SLP016 P0000 60000 T00331022 10044 20000 52006 TSNO
PAAQ 180453Z AUTO 35012KT 10SM -RA BKN070 OVC090 04/M03 A2956 RMK AO2 RAB46 SLP014 P0000 T00441028 TSNO
PAAQ 180353Z AUTO 35010KT 10SM FEW055 FEW070 OVC085 03/M03 A2956 RMK AO2 SLP013 T00331028 TSNO
PAAQ 180253Z 36010KT 10SM OVC085 04/M03 A2955 RMK AO2 SLP010 T00391033 58008
PAAQ 180153Z 03009KT 360V080 10SM OVC080 04/M03 A2956 RMK AO2 SLP014 T00391028
PAAQ 180053Z 09003KT 10SM OVC075 00/M02 A2957 RMK AO2 SLP018 T00001022
PAAQ 172353Z 08003KT 10SM BKN090 00/M02 A2958 RMK AO2 SLP020 T00001022 10006 21011 58004
PAAQ 172253Z 00000KT 10SM FEW060 BKN080 OVC180 00/M02 A2959 RMK AO2 SLP026 T00001022
PAAQ 172153Z 18003KT 10SM BKN090 01/M03 A2959 RMK AO2 SLP025 T00061028
PAAQ 172053Z 00000KT 10SM OVC095 00/M03 A2959 RMK AO2 SLP024 T00001028 55005
PAAQ 171953Z 07003KT 10SM BKN080 BKN090 BKN180 M01/M03 A2959 RMK AO2 SLP022 T10061033
PAAQ 171853Z 00000KT 10SM SCT060 BKN100 BKN180 M01/M04 A2959 RMK AO2 SLP024 T10061039
PAAQ 171753Z 00000KT 10SM BKN065 OVC090 00/M03 A2960 RMK AO2 UPB23E35 SLP028 P0000 60000 T00001033 10000 21028 55010
PAAQ 171653Z 00000KT 10SM FEW075 OVC095 M01/M04 A2959 RMK AO2 SLP025 T10111039
PAAQ 171553Z AUTO 00000KT 10SM OVC100 M02/M03 A2960 RMK AO2 SLP028 T10171033 TSNO
PAAQ 171453Z AUTO 12004KT 10SM FEW120 M03/M04 A2963 RMK AO2 SLP039 T10281039 56018 TSNO
PAAQ 171353Z AUTO 07003KT 10SM FEW070 BKN100 OVC120 M02/M03 A2965 RMK AO2 SLP043 T10171033 TSNO
PAAQ 171253Z AUTO 00000KT 10SM FEW070 SCT120 M02/M04 A2966 RMK AO2 SLP049 T10171039 TSNO
PAAQ 171153Z AUTO 07004KT 10SM OVC090 M02/M04 A2968 RMK AO2 SLP057 T10171039 10017 21017 55014 TSNO
PAAQ 171053Z AUTO 09004KT 10SM OVC100 M02/M04 A2968 RMK AO2 SLP056 T10171039 TSNO
PAAQ 170953Z AUTO 10004KT 10SM CLR M01/M05 A2971 RMK AO2 SLP065 T10111050 TSNO
PAAQ 170853Z AUTO 01008KT 10SM BKN100 M01/M05 A2973 RMK AO2 SLP071 T10111050 400171056 56028 TSNO
PAAQ 170753Z AUTO 36010KT 10SM FEW100 01/M08 A2975 RMK AO2 SLP077 T00111083 TSNO
PAAQ 170653Z AUTO 36014KT 10SM OVC100 01/M08 A2978 RMK AO2 SLP089 T00111083 TSNO
PAAQ 170553Z AUTO 35013KT 10SM OVC100 01/M08 A2981 RMK AO2 SLP098 T00111083 10017 21006 56026 TSNO
PAAQ 170453Z AUTO 34011KT 10SM OVC100 01/M08 A2983 RMK AO2 SLP105 T00061083 TSNO
PAAQ 170353Z AUTO 35013KT 10SM OVC110 01/M09 A2986 RMK AO2 SLP117 T00061089 TSNO
PAAQ 170253Z 35014KT 9SM SCT050 BKN070 OVC100 00/M09 A2989 RMK AO2 SLP126 T00001089 58033
PAAQ 170153Z 35014KT 9SM BKN050 OVC075 00/M09 A2994 RMK AO2 SLP143 T00001089
PAAQ 170053Z 34013KT 8SM BKN050 OVC070 00/M09 A2996 RMK AO2 SLP152 T00001089
PAAQ 162353Z 35014G20KT 10SM OVC095 M01/M09 A2999 RMK AO2 SLP159 T10061094 10000 21017 56024
PAAQ 162253Z 34012KT 10SM BKN075 OVC100 M01/M09 A3001 RMK AO2 SLP167 T10061094
PAAQ 162153Z 34014G23KT 10SM BKN075 OVC100 M01/M09 A3003 RMK AO2 SLP172 T10061094
PAAQ 162053Z 35017G23KT 10SM BKN075 OVC100 M01/M09 A3006 RMK AO2 SLP183 T10111094 58014